sensor_id;sensor_type;location;lat;lon;timestamp;temperature;humidity
67748;HTU21D;54543;50.712;6.070;2023-05-07T00:01:49;13.85;83.69
67748;HTU21D;54543;50.712;6.070;2023-05-07T00:04:15;13.88;83.70
67748;HTU21D;54543;50.712;6.070;2023-05-07T00:06:40;13.88;83.76
67748;HTU21D;54543;50.712;6.070;2023-05-07T00:09:06;13.91;83.71
67748;HTU21D;54543;50.712;6.070;2023-05-07T00:11:33;13.93;83.69
67748;HTU21D;54543;50.712;6.070;2023-05-07T00:13:59;13.94;83.72
67748;HTU21D;54543;50.712;6.070;2023-05-07T00:16:25;13.93;83.75
67748;HTU21D;54543;50.712;6.070;2023-05-07T00:18:50;13.93;83.79
67748;HTU21D;54543;50.712;6.070;2023-05-07T00:21:16;13.94;83.90
67748;HTU21D;54543;50.712;6.070;2023-05-07T00:23:42;13.95;83.92
67748;HTU21D;54543;50.712;6.070;2023-05-07T00:26:07;13.92;84.26
67748;HTU21D;54543;50.712;6.070;2023-05-07T00:28:33;13.91;84.10
67748;HTU21D;54543;50.712;6.070;2023-05-07T00:30:58;13.90;84.18
67748;HTU21D;54543;50.712;6.070;2023-05-07T00:33:24;13.85;84.68
67748;HTU21D;54543;50.712;6.070;2023-05-07T00:35:51;13.84;84.50
67748;HTU21D;54543;50.712;6.070;2023-05-07T00:38:17;13.85;84.53
67748;HTU21D;54543;50.712;6.070;2023-05-07T00:40:43;13.85;84.78
67748;HTU21D;54543;50.712;6.070;2023-05-07T00:43:08;13.85;85.19
67748;HTU21D;54543;50.712;6.070;2023-05-07T00:45:34;13.82;85.13
67748;HTU21D;54543;50.712;6.070;2023-05-07T00:48:00;13.84;85.21
67748;HTU21D;54543;50.712;6.070;2023-05-07T00:50:27;13.85;85.16
67748;HTU21D;54543;50.712;6.070;2023-05-07T00:52:53;13.84;85.16
67748;HTU21D;54543;50.712;6.070;2023-05-07T00:55:21;13.84;85.40
67748;HTU21D;54543;50.712;6.070;2023-05-07T00:57:46;13.80;85.74
67748;HTU21D;54543;50.712;6.070;2023-05-07T01:00:13;13.82;85.54
67748;HTU21D;54543;50.712;6.070;2023-05-07T01:02:39;13.80;86.19
67748;HTU21D;54543;50.712;6.070;2023-05-07T01:05:05;13.80;86.06
67748;HTU21D;54543;50.712;6.070;2023-05-07T01:07:32;13.79;86.05
67748;HTU21D;54543;50.712;6.070;2023-05-07T01:09:59;13.80;85.85
67748;HTU21D;54543;50.712;6.070;2023-05-07T01:12:26;13.82;85.67
67748;HTU21D;54543;50.712;6.070;2023-05-07T01:14:53;13.85;85.59
67748;HTU21D;54543;50.712;6.070;2023-05-07T01:17:19;13.86;85.64
67748;HTU21D;54543;50.712;6.070;2023-05-07T01:19:45;13.85;86.00
67748;HTU21D;54543;50.712;6.070;2023-05-07T01:22:11;13.85;85.68
67748;HTU21D;54543;50.712;6.070;2023-05-07T01:24:40;13.83;85.74
67748;HTU21D;54543;50.712;6.070;2023-05-07T01:27:06;13.83;85.78
67748;HTU21D;54543;50.712;6.070;2023-05-07T01:29:32;13.82;86.00
67748;HTU21D;54543;50.712;6.070;2023-05-07T01:31:59;13.81;85.90
67748;HTU21D;54543;50.712;6.070;2023-05-07T01:34:27;13.81;85.72
67748;HTU21D;54543;50.712;6.070;2023-05-07T01:36:56;13.80;85.82
67748;HTU21D;54543;50.712;6.070;2023-05-07T01:39:27;13.79;85.80
67748;HTU21D;54543;50.712;6.070;2023-05-07T01:41:56;13.80;85.87
67748;HTU21D;54543;50.712;6.070;2023-05-07T01:44:22;13.77;85.48
67748;HTU21D;54543;50.712;6.070;2023-05-07T01:46:48;13.76;85.40
67748;HTU21D;54543;50.712;6.070;2023-05-07T01:49:16;13.76;85.28
67748;HTU21D;54543;50.712;6.070;2023-05-07T01:51:42;13.74;85.19
67748;HTU21D;54543;50.712;6.070;2023-05-07T01:54:08;13.69;85.19
67748;HTU21D;54543;50.712;6.070;2023-05-07T01:56:34;13.67;85.19
67748;HTU21D;54543;50.712;6.070;2023-05-07T01:59:00;13.61;85.31
67748;HTU21D;54543;50.712;6.070;2023-05-07T02:01:27;13.55;85.58
67748;HTU21D;54543;50.712;6.070;2023-05-07T02:03:53;13.46;86.05
67748;HTU21D;54543;50.712;6.070;2023-05-07T02:06:19;13.37;86.41
67748;HTU21D;54543;50.712;6.070;2023-05-07T02:08:45;13.27;86.86
67748;HTU21D;54543;50.712;6.070;2023-05-07T02:11:11;13.20;86.59
67748;HTU21D;54543;50.712;6.070;2023-05-07T02:13:37;13.17;86.61
67748;HTU21D;54543;50.712;6.070;2023-05-07T02:16:03;13.16;86.77
67748;HTU21D;54543;50.712;6.070;2023-05-07T02:18:29;13.11;87.22
67748;HTU21D;54543;50.712;6.070;2023-05-07T02:20:55;13.09;87.03
67748;HTU21D;54543;50.712;6.070;2023-05-07T02:23:20;13.10;87.11
67748;HTU21D;54543;50.712;6.070;2023-05-07T02:25:46;13.10;87.32
67748;HTU21D;54543;50.712;6.070;2023-05-07T02:28:12;13.11;87.54
67748;HTU21D;54543;50.712;6.070;2023-05-07T02:30:38;13.10;88.26
67748;HTU21D;54543;50.712;6.070;2023-05-07T02:33:03;13.08;87.66
67748;HTU21D;54543;50.712;6.070;2023-05-07T02:35:29;13.10;87.79
67748;HTU21D;54543;50.712;6.070;2023-05-07T02:37:55;13.09;88.34
67748;HTU21D;54543;50.712;6.070;2023-05-07T02:40:20;13.11;88.02
67748;HTU21D;54543;50.712;6.070;2023-05-07T02:42:46;13.10;88.57
67748;HTU21D;54543;50.712;6.070;2023-05-07T02:45:12;13.08;89.00
67748;HTU21D;54543;50.712;6.070;2023-05-07T02:47:37;13.05;89.06
67748;HTU21D;54543;50.712;6.070;2023-05-07T02:50:03;13.03;89.66
67748;HTU21D;54543;50.712;6.070;2023-05-07T02:52:29;12.99;89.87
67748;HTU21D;54543;50.712;6.070;2023-05-07T02:54:55;12.99;89.90
67748;HTU21D;54543;50.712;6.070;2023-05-07T02:57:20;13.01;90.08
67748;HTU21D;54543;50.712;6.070;2023-05-07T02:59:46;13.04;89.66
67748;HTU21D;54543;50.712;6.070;2023-05-07T03:02:11;13.06;89.91
67748;HTU21D;54543;50.712;6.070;2023-05-07T03:04:39;13.09;88.81
67748;HTU21D;54543;50.712;6.070;2023-05-07T03:07:05;13.16;88.31
67748;HTU21D;54543;50.712;6.070;2023-05-07T03:09:30;13.21;88.19
67748;HTU21D;54543;50.712;6.070;2023-05-07T03:11:56;13.24;88.10
67748;HTU21D;54543;50.712;6.070;2023-05-07T03:14:22;13.27;88.02
67748;HTU21D;54543;50.712;6.070;2023-05-07T03:16:49;13.29;87.84
67748;HTU21D;54543;50.712;6.070;2023-05-07T03:19:15;13.33;87.48
67748;HTU21D;54543;50.712;6.070;2023-05-07T03:21:41;13.36;87.33
67748;HTU21D;54543;50.712;6.070;2023-05-07T03:24:07;13.45;87.07
67748;HTU21D;54543;50.712;6.070;2023-05-07T03:26:32;13.46;87.95
67748;HTU21D;54543;50.712;6.070;2023-05-07T03:28:58;13.46;87.72
67748;HTU21D;54543;50.712;6.070;2023-05-07T03:31:23;13.43;87.96
67748;HTU21D;54543;50.712;6.070;2023-05-07T03:33:54;13.41;87.59
67748;HTU21D;54543;50.712;6.070;2023-05-07T03:36:21;13.43;87.49
67748;HTU21D;54543;50.712;6.070;2023-05-07T03:38:47;13.43;87.54
67748;HTU21D;54543;50.712;6.070;2023-05-07T03:41:13;13.41;87.36
67748;HTU21D;54543;50.712;6.070;2023-05-07T03:43:39;13.40;87.82
67748;HTU21D;54543;50.712;6.070;2023-05-07T03:46:04;13.39;87.63
67748;HTU21D;54543;50.712;6.070;2023-05-07T03:48:30;13.41;87.38
67748;HTU21D;54543;50.712;6.070;2023-05-07T03:50:56;13.44;87.41
67748;HTU21D;54543;50.712;6.070;2023-05-07T03:53:22;13.47;87.51
67748;HTU21D;54543;50.712;6.070;2023-05-07T03:55:48;13.46;87.30
67748;HTU21D;54543;50.712;6.070;2023-05-07T03:58:13;13.47;87.16
67748;HTU21D;54543;50.712;6.070;2023-05-07T04:00:39;13.51;87.10
67748;HTU21D;54543;50.712;6.070;2023-05-07T04:03:05;13.53;86.93
67748;HTU21D;54543;50.712;6.070;2023-05-07T04:05:31;13.59;86.74
67748;HTU21D;54543;50.712;6.070;2023-05-07T04:08:00;13.61;86.64
67748;HTU21D;54543;50.712;6.070;2023-05-07T04:10:25;13.66;86.35
67748;HTU21D;54543;50.712;6.070;2023-05-07T04:12:51;13.68;86.54
67748;HTU21D;54543;50.712;6.070;2023-05-07T04:15:17;13.67;86.27
67748;HTU21D;54543;50.712;6.070;2023-05-07T04:17:43;13.64;86.73
67748;HTU21D;54543;50.712;6.070;2023-05-07T04:20:16;13.62;87.35
67748;HTU21D;54543;50.712;6.070;2023-05-07T04:22:42;13.62;86.74
67748;HTU21D;54543;50.712;6.070;2023-05-07T04:25:08;13.64;86.61
67748;HTU21D;54543;50.712;6.070;2023-05-07T04:27:35;13.64;86.80
67748;HTU21D;54543;50.712;6.070;2023-05-07T04:30:01;13.67;86.70
67748;HTU21D;54543;50.712;6.070;2023-05-07T04:32:28;13.71;86.47
67748;HTU21D;54543;50.712;6.070;2023-05-07T04:34:55;13.75;86.57
67748;HTU21D;54543;50.712;6.070;2023-05-07T04:37:21;13.76;86.35
67748;HTU21D;54543;50.712;6.070;2023-05-07T04:39:47;13.79;86.29
67748;HTU21D;54543;50.712;6.070;2023-05-07T04:42:16;13.86;86.28
67748;HTU21D;54543;50.712;6.070;2023-05-07T04:44:43;13.93;85.96
67748;HTU21D;54543;50.712;6.070;2023-05-07T04:47:09;13.98;85.81
67748;HTU21D;54543;50.712;6.070;2023-05-07T04:49:35;14.06;85.59
67748;HTU21D;54543;50.712;6.070;2023-05-07T04:52:01;14.11;85.44
67748;HTU21D;54543;50.712;6.070;2023-05-07T04:54:26;14.17;85.15
67748;HTU21D;54543;50.712;6.070;2023-05-07T04:56:52;14.18;85.18
67748;HTU21D;54543;50.712;6.070;2023-05-07T04:59:17;14.20;85.19
67748;HTU21D;54543;50.712;6.070;2023-05-07T05:01:43;14.24;85.14
67748;HTU21D;54543;50.712;6.070;2023-05-07T05:04:09;14.32;85.17
67748;HTU21D;54543;50.712;6.070;2023-05-07T05:06:35;14.33;85.11
67748;HTU21D;54543;50.712;6.070;2023-05-07T05:09:01;14.32;85.19
67748;HTU21D;54543;50.712;6.070;2023-05-07T05:11:26;14.30;85.66
67748;HTU21D;54543;50.712;6.070;2023-05-07T05:13:52;14.29;85.39
67748;HTU21D;54543;50.712;6.070;2023-05-07T05:16:18;14.37;85.47
67748;HTU21D;54543;50.712;6.070;2023-05-07T05:18:43;14.45;85.35
67748;HTU21D;54543;50.712;6.070;2023-05-07T05:21:09;14.52;85.22
67748;HTU21D;54543;50.712;6.070;2023-05-07T05:23:34;14.54;85.03
67748;HTU21D;54543;50.712;6.070;2023-05-07T05:26:00;14.56;84.85
67748;HTU21D;54543;50.712;6.070;2023-05-07T05:28:26;14.63;84.84
67748;HTU21D;54543;50.712;6.070;2023-05-07T05:30:52;14.70;84.61
67748;HTU21D;54543;50.712;6.070;2023-05-07T05:33:18;14.77;84.58
67748;HTU21D;54543;50.712;6.070;2023-05-07T05:35:44;14.80;84.40
67748;HTU21D;54543;50.712;6.070;2023-05-07T05:38:10;14.84;84.43
67748;HTU21D;54543;50.712;6.070;2023-05-07T05:40:35;14.88;84.41
67748;HTU21D;54543;50.712;6.070;2023-05-07T05:43:01;14.96;84.45
67748;HTU21D;54543;50.712;6.070;2023-05-07T05:45:27;15.04;84.20
67748;HTU21D;54543;50.712;6.070;2023-05-07T05:47:52;15.11;84.07
67748;HTU21D;54543;50.712;6.070;2023-05-07T05:50:18;15.22;83.84
67748;HTU21D;54543;50.712;6.070;2023-05-07T05:52:43;15.27;83.77
67748;HTU21D;54543;50.712;6.070;2023-05-07T05:55:09;15.32;83.86
67748;HTU21D;54543;50.712;6.070;2023-05-07T05:57:35;15.40;83.87
67748;HTU21D;54543;50.712;6.070;2023-05-07T06:00:01;15.51;83.76
67748;HTU21D;54543;50.712;6.070;2023-05-07T06:02:28;15.61;83.59
67748;HTU21D;54543;50.712;6.070;2023-05-07T06:04:53;15.70;83.41
67748;HTU21D;54543;50.712;6.070;2023-05-07T06:07:19;15.75;83.23
67748;HTU21D;54543;50.712;6.070;2023-05-07T06:09:44;15.83;83.09
67748;HTU21D;54543;50.712;6.070;2023-05-07T06:12:11;15.88;83.11
67748;HTU21D;54543;50.712;6.070;2023-05-07T06:14:37;15.97;83.16
67748;HTU21D;54543;50.712;6.070;2023-05-07T06:17:02;16.06;83.23
67748;HTU21D;54543;50.712;6.070;2023-05-07T06:19:28;16.18;82.98
67748;HTU21D;54543;50.712;6.070;2023-05-07T06:21:54;16.31;82.62
67748;HTU21D;54543;50.712;6.070;2023-05-07T06:24:22;16.41;82.16
67748;HTU21D;54543;50.712;6.070;2023-05-07T06:26:47;16.48;82.03
67748;HTU21D;54543;50.712;6.070;2023-05-07T06:29:13;16.52;81.97
67748;HTU21D;54543;50.712;6.070;2023-05-07T06:31:39;16.51;81.89
67748;HTU21D;54543;50.712;6.070;2023-05-07T06:34:04;16.56;82.15
67748;HTU21D;54543;50.712;6.070;2023-05-07T06:36:30;16.60;81.97
67748;HTU21D;54543;50.712;6.070;2023-05-07T06:38:56;16.63;81.88
67748;HTU21D;54543;50.712;6.070;2023-05-07T06:41:21;16.67;81.90
67748;HTU21D;54543;50.712;6.070;2023-05-07T06:43:47;16.71;81.87
67748;HTU21D;54543;50.712;6.070;2023-05-07T06:46:13;16.79;81.91
67748;HTU21D;54543;50.712;6.070;2023-05-07T06:48:38;16.91;81.78
67748;HTU21D;54543;50.712;6.070;2023-05-07T06:51:04;17.02;81.46
67748;HTU21D;54543;50.712;6.070;2023-05-07T06:53:30;17.15;80.91
67748;HTU21D;54543;50.712;6.070;2023-05-07T06:55:56;17.26;80.69
67748;HTU21D;54543;50.712;6.070;2023-05-07T06:58:22;17.41;80.35
67748;HTU21D;54543;50.712;6.070;2023-05-07T07:00:47;17.53;80.18
67748;HTU21D;54543;50.712;6.070;2023-05-07T07:03:13;17.66;79.23
67748;HTU21D;54543;50.712;6.070;2023-05-07T07:05:40;17.77;78.72
67748;HTU21D;54543;50.712;6.070;2023-05-07T07:08:06;17.88;78.28
67748;HTU21D;54543;50.712;6.070;2023-05-07T07:10:33;17.95;77.91
67748;HTU21D;54543;50.712;6.070;2023-05-07T07:12:58;18.02;77.51
67748;HTU21D;54543;50.712;6.070;2023-05-07T07:15:25;18.09;77.79
67748;HTU21D;54543;50.712;6.070;2023-05-07T07:17:51;18.19;77.89
67748;HTU21D;54543;50.712;6.070;2023-05-07T07:20:16;18.29;77.32
67748;HTU21D;54543;50.712;6.070;2023-05-07T07:22:42;18.39;77.25
67748;HTU21D;54543;50.712;6.070;2023-05-07T07:25:08;18.50;76.45
67748;HTU21D;54543;50.712;6.070;2023-05-07T07:27:34;18.64;76.30
67748;HTU21D;54543;50.712;6.070;2023-05-07T07:30:00;18.82;75.91
67748;HTU21D;54543;50.712;6.070;2023-05-07T07:32:25;18.98;74.60
67748;HTU21D;54543;50.712;6.070;2023-05-07T07:34:51;19.14;73.38
67748;HTU21D;54543;50.712;6.070;2023-05-07T07:37:17;19.31;72.77
67748;HTU21D;54543;50.712;6.070;2023-05-07T07:39:42;19.47;72.09
67748;HTU21D;54543;50.712;6.070;2023-05-07T07:42:08;19.60;71.98
67748;HTU21D;54543;50.712;6.070;2023-05-07T07:44:34;19.70;71.84
67748;HTU21D;54543;50.712;6.070;2023-05-07T07:46:59;19.80;71.45
67748;HTU21D;54543;50.712;6.070;2023-05-07T07:49:26;19.89;71.06
67748;HTU21D;54543;50.712;6.070;2023-05-07T07:51:51;20.00;70.50
67748;HTU21D;54543;50.712;6.070;2023-05-07T07:54:17;20.12;69.92
67748;HTU21D;54543;50.712;6.070;2023-05-07T07:56:43;20.25;69.34
67748;HTU21D;54543;50.712;6.070;2023-05-07T07:59:08;20.36;69.10
67748;HTU21D;54543;50.712;6.070;2023-05-07T08:01:34;20.49;68.57
67748;HTU21D;54543;50.712;6.070;2023-05-07T08:04:00;20.62;68.31
67748;HTU21D;54543;50.712;6.070;2023-05-07T08:06:25;20.72;68.07
67748;HTU21D;54543;50.712;6.070;2023-05-07T08:08:52;20.81;67.76
67748;HTU21D;54543;50.712;6.070;2023-05-07T08:11:17;20.86;67.59
67748;HTU21D;54543;50.712;6.070;2023-05-07T08:13:43;20.89;67.43
67748;HTU21D;54543;50.712;6.070;2023-05-07T08:16:09;20.92;67.05
67748;HTU21D;54543;50.712;6.070;2023-05-07T08:18:34;20.98;66.92
67748;HTU21D;54543;50.712;6.070;2023-05-07T08:21:01;21.03;66.47
67748;HTU21D;54543;50.712;6.070;2023-05-07T08:23:26;21.07;66.10
67748;HTU21D;54543;50.712;6.070;2023-05-07T08:25:53;21.10;65.69
67748;HTU21D;54543;50.712;6.070;2023-05-07T08:28:18;21.13;65.24
67748;HTU21D;54543;50.712;6.070;2023-05-07T08:30:45;21.07;65.09
67748;HTU21D;54543;50.712;6.070;2023-05-07T08:33:10;21.03;65.15
67748;HTU21D;54543;50.712;6.070;2023-05-07T08:35:36;21.02;65.08
67748;HTU21D;54543;50.712;6.070;2023-05-07T08:38:01;21.06;64.65
67748;HTU21D;54543;50.712;6.070;2023-05-07T08:40:28;21.09;64.51
67748;HTU21D;54543;50.712;6.070;2023-05-07T08:42:56;21.15;64.57
67748;HTU21D;54543;50.712;6.070;2023-05-07T08:45:22;21.28;64.41
67748;HTU21D;54543;50.712;6.070;2023-05-07T08:47:52;21.43;62.21
67748;HTU21D;54543;50.712;6.070;2023-05-07T08:50:18;21.55;62.91
67748;HTU21D;54543;50.712;6.070;2023-05-07T08:52:45;21.60;62.15
67748;HTU21D;54543;50.712;6.070;2023-05-07T08:55:12;21.65;62.37
67748;HTU21D;54543;50.712;6.070;2023-05-07T08:57:38;21.81;62.08
67748;HTU21D;54543;50.712;6.070;2023-05-07T09:00:04;21.92;61.70
67748;HTU21D;54543;50.712;6.070;2023-05-07T09:02:32;22.08;61.19
67748;HTU21D;54543;50.712;6.070;2023-05-07T09:04:58;22.25;60.70
67748;HTU21D;54543;50.712;6.070;2023-05-07T09:07:23;22.38;60.53
67748;HTU21D;54543;50.712;6.070;2023-05-07T09:09:50;22.46;60.31
67748;HTU21D;54543;50.712;6.070;2023-05-07T09:12:18;22.40;59.90
67748;HTU21D;54543;50.712;6.070;2023-05-07T09:14:45;22.34;60.41
67748;HTU21D;54543;50.712;6.070;2023-05-07T09:17:11;22.22;60.64
67748;HTU21D;54543;50.712;6.070;2023-05-07T09:19:36;22.09;60.85
67748;HTU21D;54543;50.712;6.070;2023-05-07T09:22:04;21.98;60.71
67748;HTU21D;54543;50.712;6.070;2023-05-07T09:24:30;21.89;61.18
67748;HTU21D;54543;50.712;6.070;2023-05-07T09:27:01;21.89;61.13
67748;HTU21D;54543;50.712;6.070;2023-05-07T09:29:27;21.99;61.35
67748;HTU21D;54543;50.712;6.070;2023-05-07T09:31:54;22.18;60.81
67748;HTU21D;54543;50.712;6.070;2023-05-07T09:34:20;22.32;60.52
67748;HTU21D;54543;50.712;6.070;2023-05-07T09:36:46;22.41;60.00
67748;HTU21D;54543;50.712;6.070;2023-05-07T09:39:12;22.50;60.12
67748;HTU21D;54543;50.712;6.070;2023-05-07T09:41:45;22.52;58.91
67748;HTU21D;54543;50.712;6.070;2023-05-07T09:44:12;22.60;59.93
67748;HTU21D;54543;50.712;6.070;2023-05-07T09:46:39;22.60;59.90
67748;HTU21D;54543;50.712;6.070;2023-05-07T09:49:11;22.55;59.41
67748;HTU21D;54543;50.712;6.070;2023-05-07T09:51:47;22.44;58.86
67748;HTU21D;54543;50.712;6.070;2023-05-07T09:54:14;22.33;60.59
67748;HTU21D;54543;50.712;6.070;2023-05-07T09:56:40;22.22;60.80
67748;HTU21D;54543;50.712;6.070;2023-05-07T09:59:10;22.03;60.81
67748;HTU21D;54543;50.712;6.070;2023-05-07T10:01:38;21.83;60.88
67748;HTU21D;54543;50.712;6.070;2023-05-07T10:04:05;21.69;60.81
67748;HTU21D;54543;50.712;6.070;2023-05-07T10:06:34;21.62;61.00
67748;HTU21D;54543;50.712;6.070;2023-05-07T10:09:02;21.57;61.54
67748;HTU21D;54543;50.712;6.070;2023-05-07T10:11:28;21.52;61.29
67748;HTU21D;54543;50.712;6.070;2023-05-07T10:13:54;21.44;60.80
67748;HTU21D;54543;50.712;6.070;2023-05-07T10:16:20;21.34;61.12
67748;HTU21D;54543;50.712;6.070;2023-05-07T10:18:47;21.30;61.40
67748;HTU21D;54543;50.712;6.070;2023-05-07T10:21:19;21.24;59.96
67748;HTU21D;54543;50.712;6.070;2023-05-07T10:23:49;21.25;61.15
67748;HTU21D;54543;50.712;6.070;2023-05-07T10:26:17;21.35;60.98
67748;HTU21D;54543;50.712;6.070;2023-05-07T10:28:45;21.38;58.97
67748;HTU21D;54543;50.712;6.070;2023-05-07T10:33:42;21.45;60.41
67748;HTU21D;54543;50.712;6.070;2023-05-07T10:36:11;21.59;60.29
67748;HTU21D;54543;50.712;6.070;2023-05-07T10:38:37;21.72;59.64
67748;HTU21D;54543;50.712;6.070;2023-05-07T10:41:03;21.76;59.54
67748;HTU21D;54543;50.712;6.070;2023-05-07T10:43:41;21.73;58.03
67748;HTU21D;54543;50.712;6.070;2023-05-07T10:46:15;21.65;56.56
67748;HTU21D;54543;50.712;6.070;2023-05-07T10:51:30;21.57;59.41
67748;HTU21D;54543;50.712;6.070;2023-05-07T10:56:39;21.39;58.93
67748;HTU21D;54543;50.712;6.070;2023-05-07T11:01:50;21.11;59.24
67748;HTU21D;54543;50.712;6.070;2023-05-07T11:04:17;20.99;59.73
67748;HTU21D;54543;50.712;6.070;2023-05-07T11:15:10;20.89;59.90
67748;HTU21D;54543;50.712;6.070;2023-05-07T11:17:55;20.87;60.25
67748;HTU21D;54543;50.712;6.070;2023-05-07T11:20:36;20.75;59.57
67748;HTU21D;54543;50.712;6.070;2023-05-07T11:26:02;20.96;61.07
67748;HTU21D;54543;50.712;6.070;2023-05-07T11:28:29;21.09;60.73
67748;HTU21D;54543;50.712;6.070;2023-05-07T11:30:56;21.16;60.75
67748;HTU21D;54543;50.712;6.070;2023-05-07T11:33:23;21.29;60.80
67748;HTU21D;54543;50.712;6.070;2023-05-07T11:35:52;21.39;60.62
67748;HTU21D;54543;50.712;6.070;2023-05-07T11:38:19;21.53;60.60
67748;HTU21D;54543;50.712;6.070;2023-05-07T11:41:03;21.60;57.62
67748;HTU21D;54543;50.712;6.070;2023-05-07T11:43:30;21.46;58.94
67748;HTU21D;54543;50.712;6.070;2023-05-07T11:46:08;21.38;59.28
67748;HTU21D;54543;50.712;6.070;2023-05-07T11:48:35;21.32;60.57
67748;HTU21D;54543;50.712;6.070;2023-05-07T11:51:02;21.29;60.43
67748;HTU21D;54543;50.712;6.070;2023-05-07T11:53:35;21.27;59.58
67748;HTU21D;54543;50.712;6.070;2023-05-07T11:56:09;21.22;60.33
67748;HTU21D;54543;50.712;6.070;2023-05-07T11:58:35;21.21;60.84
67748;HTU21D;54543;50.712;6.070;2023-05-07T12:01:01;21.27;60.47
67748;HTU21D;54543;50.712;6.070;2023-05-07T12:03:27;21.21;60.73
67748;HTU21D;54543;50.712;6.070;2023-05-07T12:05:54;21.16;61.14
67748;HTU21D;54543;50.712;6.070;2023-05-07T12:08:20;21.11;61.27
67748;HTU21D;54543;50.712;6.070;2023-05-07T12:10:48;21.13;61.38
67748;HTU21D;54543;50.712;6.070;2023-05-07T12:13:19;21.09;61.89
67748;HTU21D;54543;50.712;6.070;2023-05-07T12:15:45;21.16;61.74
67748;HTU21D;54543;50.712;6.070;2023-05-07T12:18:11;21.11;61.91
67748;HTU21D;54543;50.712;6.070;2023-05-07T12:20:37;21.07;62.49
67748;HTU21D;54543;50.712;6.070;2023-05-07T12:23:03;21.09;62.82
67748;HTU21D;54543;50.712;6.070;2023-05-07T12:25:36;21.23;63.11
67748;HTU21D;54543;50.712;6.070;2023-05-07T12:28:02;21.30;62.63
67748;HTU21D;54543;50.712;6.070;2023-05-07T12:30:39;21.32;62.78
67748;HTU21D;54543;50.712;6.070;2023-05-07T12:33:05;21.35;63.15
67748;HTU21D;54543;50.712;6.070;2023-05-07T12:35:32;21.46;63.07
67748;HTU21D;54543;50.712;6.070;2023-05-07T12:38:01;21.60;62.53
67748;HTU21D;54543;50.712;6.070;2023-05-07T12:43:05;21.85;62.72
67748;HTU21D;54543;50.712;6.070;2023-05-07T12:45:30;21.87;62.48
67748;HTU21D;54543;50.712;6.070;2023-05-07T12:47:56;21.80;62.88
67748;HTU21D;54543;50.712;6.070;2023-05-07T12:50:26;21.78;62.80
67748;HTU21D;54543;50.712;6.070;2023-05-07T12:52:55;21.68;62.29
67748;HTU21D;54543;50.712;6.070;2023-05-07T12:55:21;21.45;62.66
67748;HTU21D;54543;50.712;6.070;2023-05-07T12:57:50;21.18;62.33
67748;HTU21D;54543;50.712;6.070;2023-05-07T13:00:17;21.01;63.60
67748;HTU21D;54543;50.712;6.070;2023-05-07T13:02:48;20.94;64.03
67748;HTU21D;54543;50.712;6.070;2023-05-07T13:05:15;20.93;63.65
67748;HTU21D;54543;50.712;6.070;2023-05-07T13:07:41;20.84;63.98
67748;HTU21D;54543;50.712;6.070;2023-05-07T13:10:17;20.89;64.19
67748;HTU21D;54543;50.712;6.070;2023-05-07T13:12:43;21.02;63.99
67748;HTU21D;54543;50.712;6.070;2023-05-07T13:15:08;21.22;63.82
67748;HTU21D;54543;50.712;6.070;2023-05-07T13:17:34;21.47;63.44
67748;HTU21D;54543;50.712;6.070;2023-05-07T13:20:00;21.68;62.70
67748;HTU21D;54543;50.712;6.070;2023-05-07T13:22:25;21.80;62.49
67748;HTU21D;54543;50.712;6.070;2023-05-07T13:24:51;21.92;62.22
67748;HTU21D;54543;50.712;6.070;2023-05-07T13:27:17;21.99;61.93
67748;HTU21D;54543;50.712;6.070;2023-05-07T13:29:44;21.99;61.63
67748;HTU21D;54543;50.712;6.070;2023-05-07T13:32:10;21.82;62.24
67748;HTU21D;54543;50.712;6.070;2023-05-07T13:34:35;21.65;62.66
67748;HTU21D;54543;50.712;6.070;2023-05-07T13:37:02;21.47;62.84
67748;HTU21D;54543;50.712;6.070;2023-05-07T13:39:28;21.29;63.15
67748;HTU21D;54543;50.712;6.070;2023-05-07T13:41:53;21.10;63.71
67748;HTU21D;54543;50.712;6.070;2023-05-07T13:44:20;20.99;63.94
67748;HTU21D;54543;50.712;6.070;2023-05-07T13:46:46;20.88;64.08
67748;HTU21D;54543;50.712;6.070;2023-05-07T13:49:12;20.77;64.44
67748;HTU21D;54543;50.712;6.070;2023-05-07T13:51:38;20.74;64.53
67748;HTU21D;54543;50.712;6.070;2023-05-07T13:54:03;20.70;64.50
67748;HTU21D;54543;50.712;6.070;2023-05-07T13:56:30;20.64;64.61
67748;HTU21D;54543;50.712;6.070;2023-05-07T13:59:03;20.55;64.86
67748;HTU21D;54543;50.712;6.070;2023-05-07T14:01:30;20.54;64.73
67748;HTU21D;54543;50.712;6.070;2023-05-07T14:03:56;20.58;64.73
67748;HTU21D;54543;50.712;6.070;2023-05-07T14:06:25;20.59;64.76
67748;HTU21D;54543;50.712;6.070;2023-05-07T14:08:51;20.68;64.82
67748;HTU21D;54543;50.712;6.070;2023-05-07T14:11:18;20.70;64.23
67748;HTU21D;54543;50.712;6.070;2023-05-07T14:13:44;20.66;64.55
67748;HTU21D;54543;50.712;6.070;2023-05-07T14:16:10;20.73;64.29
67748;HTU21D;54543;50.712;6.070;2023-05-07T14:18:36;20.77;64.15
67748;HTU21D;54543;50.712;6.070;2023-05-07T14:21:04;20.80;64.05
67748;HTU21D;54543;50.712;6.070;2023-05-07T14:23:39;20.89;64.01
67748;HTU21D;54543;50.712;6.070;2023-05-07T14:26:06;20.96;63.71
67748;HTU21D;54543;50.712;6.070;2023-05-07T14:28:32;21.02;63.69
67748;HTU21D;54543;50.712;6.070;2023-05-07T14:30:59;21.00;62.65
67748;HTU21D;54543;50.712;6.070;2023-05-07T14:33:26;20.92;63.49
67748;HTU21D;54543;50.712;6.070;2023-05-07T14:35:52;20.86;63.44
67748;HTU21D;54543;50.712;6.070;2023-05-07T14:38:19;20.72;63.66
67748;HTU21D;54543;50.712;6.070;2023-05-07T14:40:51;20.76;63.52
67748;HTU21D;54543;50.712;6.070;2023-05-07T14:43:23;20.75;63.63
67748;HTU21D;54543;50.712;6.070;2023-05-07T14:45:49;20.69;63.72
67748;HTU21D;54543;50.712;6.070;2023-05-07T14:48:15;20.62;63.89
67748;HTU21D;54543;50.712;6.070;2023-05-07T14:50:46;20.60;63.46
67748;HTU21D;54543;50.712;6.070;2023-05-07T14:53:20;20.56;64.25
67748;HTU21D;54543;50.712;6.070;2023-05-07T14:55:49;20.57;63.76
67748;HTU21D;54543;50.712;6.070;2023-05-07T14:58:14;20.56;63.78
67748;HTU21D;54543;50.712;6.070;2023-05-07T15:00:40;20.55;63.67
67748;HTU21D;54543;50.712;6.070;2023-05-07T15:03:09;20.51;63.42
67748;HTU21D;54543;50.712;6.070;2023-05-07T15:05:38;20.42;64.15
67748;HTU21D;54543;50.712;6.070;2023-05-07T15:08:04;20.51;64.24
67748;HTU21D;54543;50.712;6.070;2023-05-07T15:10:30;20.60;63.78
67748;HTU21D;54543;50.712;6.070;2023-05-07T15:12:57;20.61;63.73
67748;HTU21D;54543;50.712;6.070;2023-05-07T15:15:23;20.57;63.44
67748;HTU21D;54543;50.712;6.070;2023-05-07T15:17:50;20.46;63.94
67748;HTU21D;54543;50.712;6.070;2023-05-07T15:20:15;20.43;64.10
67748;HTU21D;54543;50.712;6.070;2023-05-07T15:22:41;20.42;64.16
67748;HTU21D;54543;50.712;6.070;2023-05-07T15:25:07;20.44;64.18
67748;HTU21D;54543;50.712;6.070;2023-05-07T15:27:33;20.48;63.85
67748;HTU21D;54543;50.712;6.070;2023-05-07T15:29:58;20.37;64.18
67748;HTU21D;54543;50.712;6.070;2023-05-07T15:32:24;20.32;64.56
67748;HTU21D;54543;50.712;6.070;2023-05-07T15:34:50;20.30;64.56
67748;HTU21D;54543;50.712;6.070;2023-05-07T15:37:16;20.27;64.80